Terminal Aerodrome Forecast
Issued by NWS Sioux Falls, SD

Home | Current Version | Previous Version | Text Only | Print | Product List | Glossary On
Versions: 1 2 3 4 5 6 7 8 9 10 11 12 13 14 15 16 17
000
FTUS43 KFSD 260500 RRA
TAFHON
TAF
KHON 260545Z 2606/2706 01005KT P6SM SCT250
     FM261400 10006KT P6SM SCT120
     FM261800 12006KT P6SM BKN080
     FM262300 13004KT P6SM BKN070
      TEMPO 2623/2703 -SHRA OVC050=

USA.gov is the U.S. government's official web portal to all federal, state and local government web resources and services.